sensor_id;sensor_type;location;lat;lon;timestamp;P1;durP1;ratioP1;P2;durP2;ratioP2
4885;SDS011;2457;51.788;6.136;2023-02-16T00:00:32;35.17;;;19.40;;
4885;SDS011;2457;51.788;6.136;2023-02-16T00:02:59;32.83;;;18.00;;
4885;SDS011;2457;51.788;6.136;2023-02-16T00:05:28;33.33;;;17.80;;
4885;SDS011;2457;51.788;6.136;2023-02-16T00:07:56;34.00;;;17.73;;
4885;SDS011;2457;51.788;6.136;2023-02-16T00:10:30;33.20;;;17.17;;
4885;SDS011;2457;51.788;6.136;2023-02-16T00:12:52;30.17;;;16.70;;
4885;SDS011;2457;51.788;6.136;2023-02-16T00:15:27;27.80;;;17.33;;
4885;SDS011;2457;51.788;6.136;2023-02-16T00:17:54;32.93;;;17.60;;
4885;SDS011;2457;51.788;6.136;2023-02-16T00:20:23;32.47;;;18.00;;
4885;SDS011;2457;51.788;6.136;2023-02-16T00:22:50;34.10;;;18.00;;
4885;SDS011;2457;51.788;6.136;2023-02-16T00:25:17;34.77;;;17.50;;
4885;SDS011;2457;51.788;6.136;2023-02-16T00:27:44;32.30;;;16.87;;
4885;SDS011;2457;51.788;6.136;2023-02-16T00:30:15;33.30;;;17.57;;
4885;SDS011;2457;51.788;6.136;2023-02-16T00:32:41;35.27;;;16.77;;
4885;SDS011;2457;51.788;6.136;2023-02-16T00:35:12;29.53;;;17.33;;
4885;SDS011;2457;51.788;6.136;2023-02-16T00:37:37;33.03;;;16.93;;
4885;SDS011;2457;51.788;6.136;2023-02-16T00:40:04;32.77;;;17.90;;
4885;SDS011;2457;51.788;6.136;2023-02-16T00:42:32;34.40;;;17.90;;
4885;SDS011;2457;51.788;6.136;2023-02-16T00:45:00;38.03;;;17.87;;
4885;SDS011;2457;51.788;6.136;2023-02-16T00:47:31;36.20;;;18.97;;
4885;SDS011;2457;51.788;6.136;2023-02-16T00:49:59;30.50;;;17.07;;
4885;SDS011;2457;51.788;6.136;2023-02-16T00:52:36;39.07;;;17.43;;
4885;SDS011;2457;51.788;6.136;2023-02-16T00:55:05;27.80;;;16.23;;
4885;SDS011;2457;51.788;6.136;2023-02-16T00:57:35;34.17;;;18.50;;
4885;SDS011;2457;51.788;6.136;2023-02-16T01:02:34;36.83;;;18.07;;
4885;SDS011;2457;51.788;6.136;2023-02-16T01:05:01;29.60;;;16.53;;
4885;SDS011;2457;51.788;6.136;2023-02-16T01:07:28;32.93;;;17.30;;
4885;SDS011;2457;51.788;6.136;2023-02-16T01:10:15;32.30;;;16.80;;
4885;SDS011;2457;51.788;6.136;2023-02-16T01:13:00;38.17;;;17.80;;
4885;SDS011;2457;51.788;6.136;2023-02-16T01:15:27;35.47;;;18.77;;
4885;SDS011;2457;51.788;6.136;2023-02-16T01:17:54;31.53;;;17.53;;
4885;SDS011;2457;51.788;6.136;2023-02-16T01:20:23;32.57;;;18.47;;
4885;SDS011;2457;51.788;6.136;2023-02-16T01:22:50;32.73;;;17.70;;
4885;SDS011;2457;51.788;6.136;2023-02-16T01:25:18;31.47;;;16.93;;
4885;SDS011;2457;51.788;6.136;2023-02-16T01:27:45;31.10;;;17.57;;
4885;SDS011;2457;51.788;6.136;2023-02-16T01:32:41;36.13;;;17.03;;
4885;SDS011;2457;51.788;6.136;2023-02-16T01:35:09;30.27;;;16.20;;
4885;SDS011;2457;51.788;6.136;2023-02-16T01:37:36;31.83;;;18.60;;
4885;SDS011;2457;51.788;6.136;2023-02-16T01:40:04;37.00;;;18.20;;
4885;SDS011;2457;51.788;6.136;2023-02-16T01:42:40;35.43;;;17.53;;
4885;SDS011;2457;51.788;6.136;2023-02-16T01:45:12;30.83;;;17.03;;
4885;SDS011;2457;51.788;6.136;2023-02-16T01:47:41;37.57;;;19.10;;
4885;SDS011;2457;51.788;6.136;2023-02-16T01:50:22;32.67;;;17.63;;
4885;SDS011;2457;51.788;6.136;2023-02-16T01:52:57;35.43;;;16.83;;
4885;SDS011;2457;51.788;6.136;2023-02-16T01:55:30;30.20;;;17.20;;
4885;SDS011;2457;51.788;6.136;2023-02-16T01:57:55;27.13;;;16.33;;
4885;SDS011;2457;51.788;6.136;2023-02-16T02:02:54;30.07;;;16.80;;
4885;SDS011;2457;51.788;6.136;2023-02-16T02:05:27;31.00;;;17.73;;
4885;SDS011;2457;51.788;6.136;2023-02-16T02:10:36;30.20;;;15.97;;
4885;SDS011;2457;51.788;6.136;2023-02-16T02:13:03;30.50;;;17.10;;
4885;SDS011;2457;51.788;6.136;2023-02-16T02:15:30;26.20;;;16.03;;
4885;SDS011;2457;51.788;6.136;2023-02-16T02:17:58;31.60;;;17.57;;
4885;SDS011;2457;51.788;6.136;2023-02-16T02:20:30;29.43;;;15.87;;
4885;SDS011;2457;51.788;6.136;2023-02-16T02:23:07;33.50;;;17.10;;
4885;SDS011;2457;51.788;6.136;2023-02-16T02:31:09;32.50;;;18.20;;
4885;SDS011;2457;51.788;6.136;2023-02-16T02:39:23;35.87;;;17.93;;
4885;SDS011;2457;51.788;6.136;2023-02-16T02:41:26;33.77;;;17.80;;
4885;SDS011;2457;51.788;6.136;2023-02-16T02:43:59;32.70;;;17.50;;
4885;SDS011;2457;51.788;6.136;2023-02-16T02:46:26;32.60;;;16.83;;
4885;SDS011;2457;51.788;6.136;2023-02-16T02:48:54;35.40;;;17.60;;
4885;SDS011;2457;51.788;6.136;2023-02-16T02:51:21;31.23;;;16.60;;
4885;SDS011;2457;51.788;6.136;2023-02-16T02:53:55;27.90;;;16.17;;
4885;SDS011;2457;51.788;6.136;2023-02-16T02:56:41;29.73;;;15.50;;
4885;SDS011;2457;51.788;6.136;2023-02-16T02:59:27;29.07;;;17.67;;
4885;SDS011;2457;51.788;6.136;2023-02-16T03:02:14;32.30;;;17.17;;
4885;SDS011;2457;51.788;6.136;2023-02-16T03:04:43;36.23;;;17.60;;
4885;SDS011;2457;51.788;6.136;2023-02-16T03:07:11;35.20;;;17.40;;
4885;SDS011;2457;51.788;6.136;2023-02-16T03:09:38;30.30;;;16.47;;
4885;SDS011;2457;51.788;6.136;2023-02-16T03:12:05;34.43;;;17.80;;
4885;SDS011;2457;51.788;6.136;2023-02-16T03:14:56;32.60;;;18.37;;
4885;SDS011;2457;51.788;6.136;2023-02-16T03:17:25;35.23;;;17.20;;
4885;SDS011;2457;51.788;6.136;2023-02-16T03:20:11;33.83;;;18.40;;
4885;SDS011;2457;51.788;6.136;2023-02-16T03:22:58;31.70;;;17.43;;
4885;SDS011;2457;51.788;6.136;2023-02-16T03:25:44;30.43;;;18.40;;
4885;SDS011;2457;51.788;6.136;2023-02-16T03:28:30;32.33;;;18.17;;
4885;SDS011;2457;51.788;6.136;2023-02-16T03:31:17;26.83;;;16.10;;
4885;SDS011;2457;51.788;6.136;2023-02-16T03:33:45;28.37;;;18.13;;
4885;SDS011;2457;51.788;6.136;2023-02-16T03:36:13;32.67;;;17.92;;
4885;SDS011;2457;51.788;6.136;2023-02-16T03:38:40;29.77;;;16.73;;
4885;SDS011;2457;51.788;6.136;2023-02-16T03:41:07;28.30;;;17.57;;
4885;SDS011;2457;51.788;6.136;2023-02-16T03:43:34;31.00;;;16.83;;
4885;SDS011;2457;51.788;6.136;2023-02-16T03:46:02;30.03;;;16.87;;
4885;SDS011;2457;51.788;6.136;2023-02-16T03:48:29;29.23;;;17.50;;
4885;SDS011;2457;51.788;6.136;2023-02-16T03:50:56;34.87;;;17.70;;
4885;SDS011;2457;51.788;6.136;2023-02-16T03:53:24;32.10;;;17.93;;
4885;SDS011;2457;51.788;6.136;2023-02-16T03:55:51;31.30;;;17.33;;
4885;SDS011;2457;51.788;6.136;2023-02-16T03:58:19;31.13;;;17.50;;
4885;SDS011;2457;51.788;6.136;2023-02-16T04:00:48;34.90;;;18.23;;
4885;SDS011;2457;51.788;6.136;2023-02-16T04:03:15;31.07;;;17.47;;
4885;SDS011;2457;51.788;6.136;2023-02-16T04:05:43;33.43;;;17.90;;
4885;SDS011;2457;51.788;6.136;2023-02-16T04:08:10;34.70;;;18.27;;
4885;SDS011;2457;51.788;6.136;2023-02-16T04:10:38;35.20;;;18.53;;
4885;SDS011;2457;51.788;6.136;2023-02-16T04:13:05;30.60;;;17.57;;
4885;SDS011;2457;51.788;6.136;2023-02-16T04:15:33;40.33;;;19.97;;
4885;SDS011;2457;51.788;6.136;2023-02-16T04:18:00;40.30;;;19.40;;
4885;SDS011;2457;51.788;6.136;2023-02-16T04:20:29;30.53;;;17.00;;
4885;SDS011;2457;51.788;6.136;2023-02-16T04:22:56;36.17;;;18.43;;
4885;SDS011;2457;51.788;6.136;2023-02-16T04:25:23;32.30;;;18.50;;
4885;SDS011;2457;51.788;6.136;2023-02-16T04:27:51;34.30;;;17.70;;
4885;SDS011;2457;51.788;6.136;2023-02-16T04:30:20;32.70;;;18.57;;
4885;SDS011;2457;51.788;6.136;2023-02-16T04:32:48;37.00;;;19.70;;
4885;SDS011;2457;51.788;6.136;2023-02-16T04:35:15;37.17;;;19.43;;
4885;SDS011;2457;51.788;6.136;2023-02-16T04:37:43;34.60;;;18.90;;
4885;SDS011;2457;51.788;6.136;2023-02-16T04:40:10;39.03;;;20.13;;
4885;SDS011;2457;51.788;6.136;2023-02-16T04:42:39;41.13;;;19.40;;
4885;SDS011;2457;51.788;6.136;2023-02-16T04:45:07;34.60;;;18.27;;
4885;SDS011;2457;51.788;6.136;2023-02-16T04:47:34;33.93;;;20.00;;
4885;SDS011;2457;51.788;6.136;2023-02-16T04:50:02;35.23;;;19.47;;
4885;SDS011;2457;51.788;6.136;2023-02-16T04:52:29;32.40;;;18.70;;
4885;SDS011;2457;51.788;6.136;2023-02-16T04:54:57;35.80;;;19.70;;
4885;SDS011;2457;51.788;6.136;2023-02-16T04:57:24;36.23;;;19.50;;
4885;SDS011;2457;51.788;6.136;2023-02-16T04:59:52;34.60;;;19.23;;
4885;SDS011;2457;51.788;6.136;2023-02-16T05:02:19;34.03;;;18.33;;
4885;SDS011;2457;51.788;6.136;2023-02-16T05:04:46;36.80;;;19.07;;
4885;SDS011;2457;51.788;6.136;2023-02-16T05:07:13;34.33;;;19.10;;
4885;SDS011;2457;51.788;6.136;2023-02-16T05:09:41;35.73;;;18.30;;
4885;SDS011;2457;51.788;6.136;2023-02-16T05:12:08;39.13;;;18.80;;
4885;SDS011;2457;51.788;6.136;2023-02-16T05:14:54;36.77;;;19.27;;
4885;SDS011;2457;51.788;6.136;2023-02-16T05:17:26;34.60;;;17.93;;
4885;SDS011;2457;51.788;6.136;2023-02-16T05:19:56;33.10;;;17.37;;
4885;SDS011;2457;51.788;6.136;2023-02-16T05:22:19;38.70;;;19.43;;
4885;SDS011;2457;51.788;6.136;2023-02-16T05:24:47;32.40;;;18.57;;
4885;SDS011;2457;51.788;6.136;2023-02-16T05:27:15;34.00;;;17.30;;
4885;SDS011;2457;51.788;6.136;2023-02-16T05:29:43;31.80;;;17.90;;
4885;SDS011;2457;51.788;6.136;2023-02-16T05:32:10;35.50;;;18.10;;
4885;SDS011;2457;51.788;6.136;2023-02-16T05:34:37;37.83;;;19.10;;
4885;SDS011;2457;51.788;6.136;2023-02-16T05:37:05;32.50;;;17.40;;
4885;SDS011;2457;51.788;6.136;2023-02-16T05:39:32;33.73;;;18.60;;
4885;SDS011;2457;51.788;6.136;2023-02-16T05:41:59;39.20;;;20.13;;
4885;SDS011;2457;51.788;6.136;2023-02-16T05:44:27;34.77;;;19.20;;
4885;SDS011;2457;51.788;6.136;2023-02-16T05:46:54;37.83;;;19.70;;
4885;SDS011;2457;51.788;6.136;2023-02-16T05:49:21;35.47;;;17.33;;
4885;SDS011;2457;51.788;6.136;2023-02-16T05:51:48;29.20;;;17.20;;
4885;SDS011;2457;51.788;6.136;2023-02-16T05:54:16;28.60;;;17.07;;
4885;SDS011;2457;51.788;6.136;2023-02-16T05:56:44;36.67;;;19.47;;
4885;SDS011;2457;51.788;6.136;2023-02-16T05:59:11;32.73;;;17.90;;
4885;SDS011;2457;51.788;6.136;2023-02-16T06:01:39;31.07;;;18.10;;
4885;SDS011;2457;51.788;6.136;2023-02-16T06:04:07;28.23;;;16.90;;
4885;SDS011;2457;51.788;6.136;2023-02-16T06:06:35;31.83;;;17.57;;
4885;SDS011;2457;51.788;6.136;2023-02-16T06:09:05;29.80;;;17.30;;
4885;SDS011;2457;51.788;6.136;2023-02-16T06:11:33;34.13;;;17.87;;
4885;SDS011;2457;51.788;6.136;2023-02-16T06:14:04;31.93;;;16.63;;
4885;SDS011;2457;51.788;6.136;2023-02-16T06:16:33;29.40;;;17.70;;
4885;SDS011;2457;51.788;6.136;2023-02-16T06:19:00;33.63;;;16.70;;
4885;SDS011;2457;51.788;6.136;2023-02-16T06:21:28;33.92;;;18.15;;
4885;SDS011;2457;51.788;6.136;2023-02-16T06:23:55;38.40;;;19.77;;
4885;SDS011;2457;51.788;6.136;2023-02-16T06:26:24;37.10;;;18.10;;
4885;SDS011;2457;51.788;6.136;2023-02-16T06:28:51;32.33;;;17.97;;
4885;SDS011;2457;51.788;6.136;2023-02-16T06:31:19;31.20;;;17.90;;
4885;SDS011;2457;51.788;6.136;2023-02-16T06:33:46;32.90;;;16.80;;
4885;SDS011;2457;51.788;6.136;2023-02-16T06:36:14;31.95;;;17.45;;
4885;SDS011;2457;51.788;6.136;2023-02-16T06:38:41;37.97;;;19.87;;
4885;SDS011;2457;51.788;6.136;2023-02-16T06:41:09;31.57;;;17.57;;
4885;SDS011;2457;51.788;6.136;2023-02-16T06:43:36;31.10;;;17.37;;
4885;SDS011;2457;51.788;6.136;2023-02-16T06:46:03;32.33;;;17.57;;
4885;SDS011;2457;51.788;6.136;2023-02-16T06:48:30;29.10;;;16.53;;
4885;SDS011;2457;51.788;6.136;2023-02-16T06:50:58;33.33;;;17.83;;
4885;SDS011;2457;51.788;6.136;2023-02-16T06:53:25;35.63;;;16.70;;
4885;SDS011;2457;51.788;6.136;2023-02-16T06:55:52;31.63;;;17.90;;
4885;SDS011;2457;51.788;6.136;2023-02-16T06:58:19;38.10;;;19.20;;
4885;SDS011;2457;51.788;6.136;2023-02-16T07:00:47;37.80;;;21.20;;
4885;SDS011;2457;51.788;6.136;2023-02-16T07:03:15;35.23;;;22.13;;
4885;SDS011;2457;51.788;6.136;2023-02-16T07:05:42;34.37;;;18.87;;
4885;SDS011;2457;51.788;6.136;2023-02-16T07:08:09;29.23;;;16.43;;
4885;SDS011;2457;51.788;6.136;2023-02-16T07:10:36;26.33;;;14.97;;
4885;SDS011;2457;51.788;6.136;2023-02-16T07:13:05;35.30;;;17.40;;
4885;SDS011;2457;51.788;6.136;2023-02-16T07:15:32;29.70;;;16.60;;
4885;SDS011;2457;51.788;6.136;2023-02-16T07:18:00;33.63;;;17.77;;
4885;SDS011;2457;51.788;6.136;2023-02-16T07:20:27;32.30;;;17.17;;
4885;SDS011;2457;51.788;6.136;2023-02-16T07:22:54;31.60;;;17.47;;
4885;SDS011;2457;51.788;6.136;2023-02-16T07:25:22;30.37;;;15.90;;
4885;SDS011;2457;51.788;6.136;2023-02-16T07:27:51;31.97;;;16.60;;
4885;SDS011;2457;51.788;6.136;2023-02-16T07:30:19;30.77;;;17.30;;
4885;SDS011;2457;51.788;6.136;2023-02-16T07:32:47;29.17;;;16.37;;
4885;SDS011;2457;51.788;6.136;2023-02-16T07:35:14;29.20;;;16.40;;
4885;SDS011;2457;51.788;6.136;2023-02-16T07:37:41;29.83;;;16.90;;
4885;SDS011;2457;51.788;6.136;2023-02-16T07:40:09;32.70;;;17.70;;
4885;SDS011;2457;51.788;6.136;2023-02-16T07:42:36;28.33;;;16.17;;
4885;SDS011;2457;51.788;6.136;2023-02-16T07:45:04;25.13;;;14.80;;
4885;SDS011;2457;51.788;6.136;2023-02-16T07:47:31;29.83;;;17.47;;
4885;SDS011;2457;51.788;6.136;2023-02-16T07:49:58;30.40;;;17.47;;
4885;SDS011;2457;51.788;6.136;2023-02-16T07:52:26;27.93;;;16.73;;
4885;SDS011;2457;51.788;6.136;2023-02-16T07:54:58;29.60;;;17.20;;
4885;SDS011;2457;51.788;6.136;2023-02-16T07:57:26;32.77;;;17.47;;
4885;SDS011;2457;51.788;6.136;2023-02-16T07:59:54;30.70;;;17.43;;
4885;SDS011;2457;51.788;6.136;2023-02-16T08:02:22;36.50;;;16.23;;
4885;SDS011;2457;51.788;6.136;2023-02-16T08:04:49;29.50;;;16.57;;
4885;SDS011;2457;51.788;6.136;2023-02-16T08:07:18;27.57;;;16.33;;
4885;SDS011;2457;51.788;6.136;2023-02-16T08:09:46;27.90;;;15.40;;
4885;SDS011;2457;51.788;6.136;2023-02-16T08:12:13;30.03;;;15.90;;
4885;SDS011;2457;51.788;6.136;2023-02-16T08:14:41;28.63;;;16.10;;
4885;SDS011;2457;51.788;6.136;2023-02-16T08:17:09;26.90;;;16.10;;
4885;SDS011;2457;51.788;6.136;2023-02-16T08:19:36;27.43;;;15.60;;
4885;SDS011;2457;51.788;6.136;2023-02-16T08:22:04;29.67;;;16.70;;
4885;SDS011;2457;51.788;6.136;2023-02-16T08:24:31;28.03;;;15.77;;
4885;SDS011;2457;51.788;6.136;2023-02-16T08:26:59;32.90;;;16.10;;
4885;SDS011;2457;51.788;6.136;2023-02-16T08:29:29;26.10;;;15.30;;
4885;SDS011;2457;51.788;6.136;2023-02-16T08:31:56;28.57;;;16.03;;
4885;SDS011;2457;51.788;6.136;2023-02-16T08:34:24;29.20;;;16.63;;
4885;SDS011;2457;51.788;6.136;2023-02-16T08:36:52;29.47;;;16.53;;
4885;SDS011;2457;51.788;6.136;2023-02-16T08:39:22;28.90;;;17.53;;
4885;SDS011;2457;51.788;6.136;2023-02-16T08:41:50;30.30;;;16.03;;
4885;SDS011;2457;51.788;6.136;2023-02-16T08:44:18;29.83;;;17.03;;
4885;SDS011;2457;51.788;6.136;2023-02-16T08:46:47;33.83;;;16.63;;
4885;SDS011;2457;51.788;6.136;2023-02-16T08:49:15;32.07;;;16.67;;
4885;SDS011;2457;51.788;6.136;2023-02-16T08:51:44;27.17;;;15.77;;
4885;SDS011;2457;51.788;6.136;2023-02-16T08:54:13;30.50;;;16.80;;
4885;SDS011;2457;51.788;6.136;2023-02-16T08:56:41;28.13;;;15.10;;
4885;SDS011;2457;51.788;6.136;2023-02-16T08:59:10;29.63;;;16.10;;
4885;SDS011;2457;51.788;6.136;2023-02-16T09:01:38;26.77;;;15.10;;
4885;SDS011;2457;51.788;6.136;2023-02-16T09:04:05;30.47;;;16.90;;
4885;SDS011;2457;51.788;6.136;2023-02-16T09:06:35;30.07;;;15.00;;
4885;SDS011;2457;51.788;6.136;2023-02-16T09:09:02;35.53;;;15.90;;
4885;SDS011;2457;51.788;6.136;2023-02-16T09:11:30;27.67;;;16.23;;
4885;SDS011;2457;51.788;6.136;2023-02-16T09:13:58;30.47;;;16.47;;
4885;SDS011;2457;51.788;6.136;2023-02-16T09:16:25;28.03;;;15.57;;
4885;SDS011;2457;51.788;6.136;2023-02-16T09:18:54;30.60;;;15.37;;
4885;SDS011;2457;51.788;6.136;2023-02-16T09:21:23;29.90;;;16.07;;
4885;SDS011;2457;51.788;6.136;2023-02-16T09:23:54;27.50;;;15.93;;
4885;SDS011;2457;51.788;6.136;2023-02-16T09:26:23;29.10;;;16.47;;
4885;SDS011;2457;51.788;6.136;2023-02-16T09:28:51;29.87;;;15.47;;
4885;SDS011;2457;51.788;6.136;2023-02-16T09:31:24;30.13;;;16.80;;
4885;SDS011;2457;51.788;6.136;2023-02-16T09:33:53;35.30;;;15.63;;
4885;SDS011;2457;51.788;6.136;2023-02-16T09:36:20;26.90;;;15.37;;
4885;SDS011;2457;51.788;6.136;2023-02-16T09:38:47;30.87;;;16.20;;
4885;SDS011;2457;51.788;6.136;2023-02-16T09:41:20;28.80;;;15.63;;
4885;SDS011;2457;51.788;6.136;2023-02-16T09:44:00;27.20;;;14.63;;
4885;SDS011;2457;51.788;6.136;2023-02-16T09:46:28;35.60;;;15.60;;
4885;SDS011;2457;51.788;6.136;2023-02-16T09:48:56;35.03;;;16.47;;
4885;SDS011;2457;51.788;6.136;2023-02-16T09:51:33;33.57;;;16.30;;
4885;SDS011;2457;51.788;6.136;2023-02-16T09:53:58;30.30;;;17.23;;
4885;SDS011;2457;51.788;6.136;2023-02-16T09:59:02;29.63;;;16.30;;
4885;SDS011;2457;51.788;6.136;2023-02-16T10:07:30;28.37;;;15.80;;
4885;SDS011;2457;51.788;6.136;2023-02-16T10:09:16;28.90;;;16.27;;
4885;SDS011;2457;51.788;6.136;2023-02-16T10:11:47;30.83;;;15.43;;
4885;SDS011;2457;51.788;6.136;2023-02-16T10:16:51;31.47;;;16.00;;
4885;SDS011;2457;51.788;6.136;2023-02-16T10:19:19;29.03;;;15.10;;
4885;SDS011;2457;51.788;6.136;2023-02-16T10:21:48;31.80;;;16.87;;
4885;SDS011;2457;51.788;6.136;2023-02-16T10:24:15;27.60;;;16.37;;
4885;SDS011;2457;51.788;6.136;2023-02-16T10:26:55;28.10;;;15.40;;
4885;SDS011;2457;51.788;6.136;2023-02-16T10:29:19;25.33;;;15.40;;
4885;SDS011;2457;51.788;6.136;2023-02-16T10:37:10;26.30;;;15.33;;
4885;SDS011;2457;51.788;6.136;2023-02-16T10:45:04;27.70;;;14.67;;
4885;SDS011;2457;51.788;6.136;2023-02-16T10:47:35;26.13;;;14.63;;
4885;SDS011;2457;51.788;6.136;2023-02-16T10:50:04;28.53;;;17.03;;
4885;SDS011;2457;51.788;6.136;2023-02-16T10:52:37;28.27;;;17.00;;
4885;SDS011;2457;51.788;6.136;2023-02-16T10:55:01;26.97;;;16.27;;
4885;SDS011;2457;51.788;6.136;2023-02-16T10:57:29;27.30;;;16.30;;
4885;SDS011;2457;51.788;6.136;2023-02-16T10:59:57;28.93;;;16.87;;
4885;SDS011;2457;51.788;6.136;2023-02-16T11:02:29;32.50;;;16.23;;
4885;SDS011;2457;51.788;6.136;2023-02-16T11:04:57;30.50;;;16.40;;
4885;SDS011;2457;51.788;6.136;2023-02-16T11:07:26;27.20;;;16.53;;
4885;SDS011;2457;51.788;6.136;2023-02-16T11:09:55;27.17;;;16.60;;
4885;SDS011;2457;51.788;6.136;2023-02-16T11:12:32;28.63;;;15.60;;
4885;SDS011;2457;51.788;6.136;2023-02-16T11:15:03;30.87;;;17.90;;
4885;SDS011;2457;51.788;6.136;2023-02-16T11:17:31;31.33;;;16.77;;
4885;SDS011;2457;51.788;6.136;2023-02-16T11:20:00;31.83;;;16.80;;
4885;SDS011;2457;51.788;6.136;2023-02-16T11:22:31;26.67;;;16.50;;
4885;SDS011;2457;51.788;6.136;2023-02-16T11:27:55;27.80;;;16.10;;
4885;SDS011;2457;51.788;6.136;2023-02-16T11:30:28;28.10;;;16.20;;
4885;SDS011;2457;51.788;6.136;2023-02-16T11:32:57;26.83;;;16.10;;
4885;SDS011;2457;51.788;6.136;2023-02-16T11:35:26;31.30;;;16.60;;
4885;SDS011;2457;51.788;6.136;2023-02-16T11:37:53;26.30;;;16.30;;
4885;SDS011;2457;51.788;6.136;2023-02-16T11:40:23;31.13;;;16.10;;
4885;SDS011;2457;51.788;6.136;2023-02-16T11:42:50;24.60;;;14.80;;
4885;SDS011;2457;51.788;6.136;2023-02-16T11:45:23;29.50;;;16.13;;
4885;SDS011;2457;51.788;6.136;2023-02-16T11:47:55;32.77;;;17.70;;
4885;SDS011;2457;51.788;6.136;2023-02-16T11:50:27;29.03;;;16.47;;
4885;SDS011;2457;51.788;6.136;2023-02-16T11:53:13;29.43;;;16.07;;
4885;SDS011;2457;51.788;6.136;2023-02-16T11:55:27;38.10;;;16.93;;
4885;SDS011;2457;51.788;6.136;2023-02-16T11:58:01;27.93;;;15.90;;
4885;SDS011;2457;51.788;6.136;2023-02-16T12:00:25;31.10;;;16.43;;
4885;SDS011;2457;51.788;6.136;2023-02-16T12:03:05;30.50;;;17.20;;
4885;SDS011;2457;51.788;6.136;2023-02-16T12:10:39;25.23;;;15.37;;
4885;SDS011;2457;51.788;6.136;2023-02-16T12:16:30;25.40;;;15.60;;
4885;SDS011;2457;51.788;6.136;2023-02-16T12:18:25;29.50;;;16.97;;
4885;SDS011;2457;51.788;6.136;2023-02-16T12:20:54;33.77;;;17.50;;
4885;SDS011;2457;51.788;6.136;2023-02-16T12:23:33;26.60;;;16.00;;
4885;SDS011;2457;51.788;6.136;2023-02-16T12:28:47;30.47;;;17.17;;
4885;SDS011;2457;51.788;6.136;2023-02-16T12:36:44;32.80;;;17.30;;
4885;SDS011;2457;51.788;6.136;2023-02-16T12:39:15;25.93;;;15.70;;
4885;SDS011;2457;51.788;6.136;2023-02-16T12:44:13;30.23;;;17.03;;
4885;SDS011;2457;51.788;6.136;2023-02-16T12:46:38;28.27;;;16.90;;
4885;SDS011;2457;51.788;6.136;2023-02-16T12:49:09;27.80;;;16.27;;
4885;SDS011;2457;51.788;6.136;2023-02-16T12:51:38;29.67;;;15.63;;
4885;SDS011;2457;51.788;6.136;2023-02-16T12:56:43;28.50;;;15.70;;
4885;SDS011;2457;51.788;6.136;2023-02-16T12:59:52;25.83;;;16.10;;
4885;SDS011;2457;51.788;6.136;2023-02-16T13:01:35;27.67;;;16.10;;
4885;SDS011;2457;51.788;6.136;2023-02-16T13:04:14;24.10;;;15.47;;
4885;SDS011;2457;51.788;6.136;2023-02-16T13:06:46;25.53;;;16.53;;
4885;SDS011;2457;51.788;6.136;2023-02-16T13:12:11;28.70;;;16.30;;
4885;SDS011;2457;51.788;6.136;2023-02-16T13:14:39;29.30;;;16.10;;
4885;SDS011;2457;51.788;6.136;2023-02-16T13:17:29;33.07;;;18.50;;
4885;SDS011;2457;51.788;6.136;2023-02-16T13:19:42;29.20;;;16.03;;
4885;SDS011;2457;51.788;6.136;2023-02-16T13:24:49;29.03;;;16.00;;
4885;SDS011;2457;51.788;6.136;2023-02-16T13:27:28;38.13;;;17.93;;
4885;SDS011;2457;51.788;6.136;2023-02-16T13:32:53;33.07;;;17.90;;
4885;SDS011;2457;51.788;6.136;2023-02-16T13:35:24;26.90;;;15.80;;
4885;SDS011;2457;51.788;6.136;2023-02-16T13:43:14;27.50;;;16.30;;
4885;SDS011;2457;51.788;6.136;2023-02-16T13:45:43;27.07;;;14.00;;
4885;SDS011;2457;51.788;6.136;2023-02-16T13:48:21;30.93;;;15.07;;
4885;SDS011;2457;51.788;6.136;2023-02-16T13:50:39;26.87;;;14.63;;
4885;SDS011;2457;51.788;6.136;2023-02-16T13:53:25;24.80;;;14.40;;
4885;SDS011;2457;51.788;6.136;2023-02-16T13:55:38;25.60;;;15.40;;
4885;SDS011;2457;51.788;6.136;2023-02-16T14:00:43;27.60;;;14.67;;
4885;SDS011;2457;51.788;6.136;2023-02-16T14:03:11;26.50;;;14.00;;
4885;SDS011;2457;51.788;6.136;2023-02-16T14:05:45;28.90;;;16.33;;
4885;SDS011;2457;51.788;6.136;2023-02-16T14:08:17;23.63;;;14.40;;
4885;SDS011;2457;51.788;6.136;2023-02-16T14:13:19;25.43;;;14.60;;
4885;SDS011;2457;51.788;6.136;2023-02-16T14:15:51;29.77;;;14.50;;
4885;SDS011;2457;51.788;6.136;2023-02-16T14:18:31;28.63;;;14.30;;
4885;SDS011;2457;51.788;6.136;2023-02-16T14:21:01;24.03;;;14.50;;
4885;SDS011;2457;51.788;6.136;2023-02-16T14:23:29;23.53;;;13.03;;
4885;SDS011;2457;51.788;6.136;2023-02-16T14:26:01;25.67;;;13.27;;
4885;SDS011;2457;51.788;6.136;2023-02-16T14:31:15;21.20;;;13.07;;
4885;SDS011;2457;51.788;6.136;2023-02-16T14:36:24;22.83;;;12.83;;
4885;SDS011;2457;51.788;6.136;2023-02-16T14:38:53;23.53;;;13.13;;
4885;SDS011;2457;51.788;6.136;2023-02-16T14:41:25;21.57;;;13.10;;
4885;SDS011;2457;51.788;6.136;2023-02-16T14:46:46;23.33;;;14.07;;
4885;SDS011;2457;51.788;6.136;2023-02-16T14:51:57;21.00;;;13.17;;
4885;SDS011;2457;51.788;6.136;2023-02-16T14:57:19;21.57;;;12.37;;
4885;SDS011;2457;51.788;6.136;2023-02-16T14:59:49;22.53;;;12.20;;
4885;SDS011;2457;51.788;6.136;2023-02-16T15:02:22;21.67;;;11.73;;
4885;SDS011;2457;51.788;6.136;2023-02-16T15:04:44;24.33;;;11.80;;
4885;SDS011;2457;51.788;6.136;2023-02-16T15:07:12;18.27;;;10.27;;
4885;SDS011;2457;51.788;6.136;2023-02-16T15:09:40;20.73;;;11.23;;
4885;SDS011;2457;51.788;6.136;2023-02-16T15:12:10;19.60;;;11.20;;
4885;SDS011;2457;51.788;6.136;2023-02-16T15:14:51;21.20;;;11.73;;
4885;SDS011;2457;51.788;6.136;2023-02-16T15:17:33;20.33;;;10.73;;
4885;SDS011;2457;51.788;6.136;2023-02-16T15:20:03;17.90;;;11.20;;
4885;SDS011;2457;51.788;6.136;2023-02-16T15:22:29;18.93;;;10.67;;
4885;SDS011;2457;51.788;6.136;2023-02-16T15:25:01;18.93;;;10.00;;
4885;SDS011;2457;51.788;6.136;2023-02-16T15:27:28;16.47;;;10.20;;
4885;SDS011;2457;51.788;6.136;2023-02-16T15:30:01;25.77;;;10.67;;
4885;SDS011;2457;51.788;6.136;2023-02-16T15:32:28;18.57;;;11.20;;
4885;SDS011;2457;51.788;6.136;2023-02-16T15:34:55;18.13;;;10.60;;
4885;SDS011;2457;51.788;6.136;2023-02-16T15:37:28;22.53;;;10.50;;
4885;SDS011;2457;51.788;6.136;2023-02-16T15:39:53;23.60;;;12.23;;
4885;SDS011;2457;51.788;6.136;2023-02-16T15:42:21;22.03;;;11.50;;
4885;SDS011;2457;51.788;6.136;2023-02-16T15:44:50;19.93;;;11.27;;
4885;SDS011;2457;51.788;6.136;2023-02-16T15:47:21;23.73;;;11.23;;
4885;SDS011;2457;51.788;6.136;2023-02-16T15:49:49;23.77;;;12.37;;
4885;SDS011;2457;51.788;6.136;2023-02-16T15:52:27;21.77;;;10.87;;
4885;SDS011;2457;51.788;6.136;2023-02-16T15:54:55;17.70;;;10.13;;
4885;SDS011;2457;51.788;6.136;2023-02-16T15:57:34;23.23;;;11.50;;
4885;SDS011;2457;51.788;6.136;2023-02-16T16:00:03;22.03;;;12.10;;
4885;SDS011;2457;51.788;6.136;2023-02-16T16:02:36;20.10;;;12.27;;
4885;SDS011;2457;51.788;6.136;2023-02-16T16:05:05;20.90;;;12.63;;
4885;SDS011;2457;51.788;6.136;2023-02-16T16:07:36;22.93;;;11.27;;
4885;SDS011;2457;51.788;6.136;2023-02-16T16:10:12;19.87;;;11.17;;
4885;SDS011;2457;51.788;6.136;2023-02-16T16:12:36;24.20;;;12.03;;
4885;SDS011;2457;51.788;6.136;2023-02-16T16:15:04;20.27;;;11.90;;
4885;SDS011;2457;51.788;6.136;2023-02-16T16:17:32;18.57;;;11.87;;
4885;SDS011;2457;51.788;6.136;2023-02-16T16:22:53;22.83;;;12.97;;
4885;SDS011;2457;51.788;6.136;2023-02-16T16:25:36;18.27;;;11.37;;
4885;SDS011;2457;51.788;6.136;2023-02-16T16:27:59;24.20;;;12.47;;
4885;SDS011;2457;51.788;6.136;2023-02-16T16:30:28;22.80;;;12.93;;
4885;SDS011;2457;51.788;6.136;2023-02-16T16:33:02;24.77;;;12.00;;
4885;SDS011;2457;51.788;6.136;2023-02-16T16:35:34;25.33;;;13.53;;
4885;SDS011;2457;51.788;6.136;2023-02-16T16:38:02;20.03;;;11.80;;
4885;SDS011;2457;51.788;6.136;2023-02-16T16:40:35;21.67;;;12.97;;
4885;SDS011;2457;51.788;6.136;2023-02-16T16:45:35;18.67;;;12.13;;